Terminal Aerodrome Forecast
Issued by NWS

Home | Current Version | Previous Version | Text Only | Print | Product List | Glossary On
Versions: 1 2 3 4 5 6 7 8 9 10 11 12 13 14 15 16 17 18 19 20 21 22 23 24
000
FTUS43 KLSX 172300
TAFSUS
TAF
KSUS 172320Z 1800/1824 VRB03KT P6SM OVC025
     FM180900 00000KT 2SM BR SCT005 BKN035
     FM181400 09004KT P6SM SCT040=

USA.gov is the U.S. government's official web portal to all federal, state and local government web resources and services.